createdAt,value
2018-02-24T00:00:39.036Z,75.64
2018-02-24T00:01:39.617Z,76.89
2018-02-24T00:02:40.197Z,77.55
2018-02-24T00:03:40.778Z,77.08
2018-02-24T00:04:41.362Z,76.98
2018-02-24T00:05:42.039Z,77.55
2018-02-24T00:06:42.618Z,77.84
2018-02-24T00:07:43.197Z,78.42
2018-02-24T00:08:43.779Z,77.26
2018-02-24T00:09:44.416Z,77.55
2018-02-24T00:10:44.993Z,77.65
2018-02-24T00:11:45.568Z,76.50
2018-02-24T00:12:46.149Z,77.65
2018-02-24T00:13:46.725Z,78.42
2018-02-24T00:14:47.305Z,77.65
2018-02-24T00:15:47.888Z,78.42
2018-02-24T00:16:48.518Z,78.42
2018-02-24T00:17:49.099Z,77.84
2018-02-24T00:18:49.678Z,78.22
2018-02-24T00:19:50.255Z,78.89
2018-02-24T00:20:50.832Z,76.79
2018-02-24T00:21:51.410Z,77.65
2018-02-24T00:22:51.989Z,80.71
2018-02-24T00:23:52.566Z,79.18
2018-02-24T00:24:53.297Z,79.28
2018-02-24T00:25:53.875Z,77.17
2018-02-24T00:26:54.457Z,76.50
2018-02-24T00:27:55.036Z,75.73
2018-02-24T00:28:55.615Z,76.31
2018-02-24T00:29:56.244Z,76.12
2018-02-24T00:30:56.923Z,74.58
2018-02-24T00:31:57.506Z,75.79
2018-02-24T00:32:58.186Z,76.98
2018-02-24T00:33:58.765Z,75.79
2018-02-24T00:34:59.345Z,77.55
2018-02-24T00:36:00.029Z,77.36
2018-02-24T00:37:00.608Z,77.80
2018-02-24T00:38:01.193Z,76.84
2018-02-24T00:39:01.821Z,76.21
2018-02-24T00:40:02.406Z,76.46
2018-02-24T00:41:02.984Z,76.46
2018-02-24T00:42:03.565Z,76.56
2018-02-24T00:43:04.147Z,76.37
2018-02-24T00:44:04.726Z,76.84
2018-02-24T00:45:05.304Z,76.27
2018-02-24T00:46:05.885Z,76.18
2018-02-24T00:47:06.467Z,76.56
2018-02-24T00:48:07.043Z,76.75
2018-02-24T00:49:07.622Z,76.75
2018-02-24T00:50:08.251Z,76.94
2018-02-24T00:51:08.885Z,77.42
2018-02-24T00:52:09.464Z,76.94
2018-02-24T00:53:10.095Z,77.80
2018-02-24T00:54:10.680Z,77.51
2018-02-24T00:55:11.258Z,77.51
2018-02-24T00:56:11.835Z,76.84
2018-02-24T00:57:12.412Z,77.80
2018-02-24T00:58:12.989Z,77.90
2018-02-24T00:59:13.574Z,76.75
2018-02-24T01:00:14.160Z,77.80
2018-02-24T01:01:14.736Z,78.09
2018-02-24T01:02:15.369Z,77.61
2018-02-24T01:03:15.949Z,78.09
2018-02-24T01:04:16.528Z,77.80
2018-02-24T01:05:17.109Z,78.19
2018-02-24T01:06:17.689Z,77.80
2018-02-24T01:07:18.270Z,77.61
2018-02-24T01:08:18.896Z,77.70
2018-02-24T01:09:19.525Z,77.13
2018-02-24T01:10:20.102Z,77.04
2018-02-24T01:11:20.731Z,77.61
2018-02-24T01:12:21.310Z,77.61
2018-02-24T01:13:21.894Z,77.51
2018-02-24T01:14:22.477Z,77.61
2018-02-24T01:15:23.057Z,77.80
2018-02-24T01:16:23.635Z,77.51
2018-02-24T01:17:24.213Z,77.33
2018-02-24T01:18:24.789Z,76.94
2018-02-24T01:19:25.367Z,77.42
2018-02-24T01:20:25.943Z,77.99
2018-02-24T01:21:26.524Z,77.80
2018-02-24T01:22:27.101Z,77.13
2018-02-24T01:23:27.680Z,77.70
2018-02-24T01:24:28.306Z,76.94
2018-02-24T01:25:28.889Z,76.33
2018-02-24T01:26:29.464Z,78.47
2018-02-24T01:27:30.045Z,77.51
2018-02-24T01:28:30.676Z,76.27
2018-02-24T01:29:31.256Z,77.61
2018-02-24T01:30:31.884Z,77.51
2018-02-24T01:31:32.467Z,78.19
2018-02-24T01:32:33.047Z,77.13
2018-02-24T01:33:33.634Z,77.51
2018-02-24T01:34:34.212Z,77.13
2018-02-24T01:35:34.845Z,76.71
2018-02-24T01:36:35.466Z,76.71
2018-02-24T01:37:36.099Z,76.81
2018-02-24T01:38:36.678Z,77.61
2018-02-24T01:39:37.258Z,77.33
2018-02-24T01:40:37.836Z,76.90
2018-02-24T01:41:38.419Z,75.66
2018-02-24T01:42:39.044Z,75.66
2018-02-24T01:43:39.628Z,76.42
2018-02-24T01:44:40.204Z,76.14
2018-02-24T01:45:40.833Z,76.14
2018-02-24T01:46:41.410Z,76.90
2018-02-24T01:47:41.991Z,76.23
2018-02-24T01:48:42.568Z,76.90
2018-02-24T01:49:43.148Z,77.86
2018-02-24T01:50:43.724Z,78.24
2018-02-24T01:51:44.351Z,77.95
2018-02-24T01:52:44.932Z,77.09
2018-02-24T01:53:45.511Z,77.57
2018-02-24T01:54:46.092Z,77.48
2018-02-24T01:55:46.665Z,76.23
2018-02-24T01:56:47.250Z,77.28
2018-02-24T01:57:47.830Z,76.90
2018-02-24T01:58:48.408Z,76.14
2018-02-24T01:59:49.038Z,76.62
2018-02-24T02:00:49.671Z,76.81
2018-02-24T02:01:50.297Z,77.48
2018-02-24T02:02:50.878Z,77.00
2018-02-24T02:03:51.458Z,76.52
2018-02-24T02:04:52.034Z,76.42
2018-02-24T02:05:52.610Z,77.76
2018-02-24T02:06:53.189Z,77.48
2018-02-24T02:07:53.822Z,76.81
2018-02-24T02:08:54.399Z,77.76
2018-02-24T02:09:54.977Z,78.05
2018-02-24T02:10:55.560Z,77.28
2018-02-24T02:11:56.140Z,79.10
2018-02-24T02:12:56.716Z,77.57
2018-02-24T02:13:57.294Z,77.57
2018-02-24T02:14:57.871Z,77.57
2018-02-24T02:15:58.499Z,78.05
2018-02-24T02:16:59.078Z,79.29
2018-02-24T02:17:59.657Z,77.76
2018-02-24T02:19:00.237Z,77.19
2018-02-24T02:20:00.866Z,77.86
2018-02-24T02:21:01.485Z,76.90
2018-02-24T02:22:02.029Z,76.81
2018-02-24T02:23:02.759Z,76.42
2018-02-24T02:24:03.339Z,77.09
2018-02-24T02:25:03.921Z,77.57
2018-02-24T02:26:04.492Z,77.48
2018-02-24T02:27:05.070Z,77.38
2018-02-24T02:28:05.646Z,77.76
2018-02-24T02:29:06.226Z,77.28
2018-02-24T02:30:06.807Z,77.00
2018-02-24T02:31:07.385Z,78.24
2018-02-24T02:32:07.964Z,77.86
2018-02-24T02:33:08.541Z,79.00
2018-02-24T02:34:09.128Z,79.87
2018-02-24T02:35:09.749Z,79.58
2018-02-24T02:36:10.330Z,80.44
2018-02-24T02:37:10.910Z,79.87
2018-02-24T02:38:11.491Z,80.92
2018-02-24T02:39:12.119Z,81.59
2018-02-24T02:40:12.701Z,81.97
2018-02-24T02:41:13.273Z,80.92
2018-02-24T02:42:13.860Z,79.68
2018-02-24T02:43:14.431Z,79.96
2018-02-24T02:44:15.009Z,80.44
2018-02-24T02:45:15.595Z,80.82
2018-02-24T02:46:16.172Z,80.82
2018-02-24T02:47:16.789Z,80.44
2018-02-24T02:48:17.416Z,79.87
2018-02-24T02:49:17.994Z,79.68
2018-02-24T02:50:18.624Z,79.68
2018-02-24T02:51:19.202Z,79.77
2018-02-24T02:52:19.781Z,78.53
2018-02-24T02:53:20.363Z,79.68
2018-02-24T02:54:20.992Z,81.11
2018-02-24T02:55:21.565Z,82.26
2018-02-24T02:56:22.145Z,81.02
2018-02-24T02:57:22.727Z,81.88
2018-02-24T02:58:23.308Z,78.81
2018-02-24T02:59:23.887Z,80.25
2018-02-24T03:00:24.476Z,80.92
2018-02-24T03:01:25.041Z,80.63
2018-02-24T03:02:25.618Z,79.68
2018-02-24T03:03:26.197Z,79.77
2018-02-24T03:04:26.777Z,80.63
2018-02-24T03:05:27.355Z,80.82
2018-02-24T03:06:27.981Z,82.17
2018-02-24T03:07:28.611Z,81.40
2018-02-24T03:08:29.237Z,82.35
2018-02-24T03:09:29.814Z,81.02
2018-02-24T03:10:30.393Z,79.20
2018-02-24T03:11:30.969Z,78.72
2018-02-24T03:12:31.545Z,80.16
2018-02-24T03:13:32.172Z,80.82
2018-02-24T03:14:32.752Z,81.02
2018-02-24T03:15:33.333Z,82.54
2018-02-24T03:16:33.912Z,81.49
2018-02-24T03:17:34.493Z,82.35
2018-02-24T03:18:35.082Z,83.12
2018-02-24T03:19:35.654Z,83.50
2018-02-24T03:20:36.234Z,84.08
2018-02-24T03:21:36.815Z,83.31
2018-02-24T03:22:37.395Z,83.03
2018-02-24T03:23:38.025Z,83.89
2018-02-24T03:24:38.606Z,81.59
2018-02-24T03:25:39.236Z,82.74
2018-02-24T03:26:39.811Z,81.30
2018-02-24T03:27:40.390Z,79.00
2018-02-24T03:28:40.969Z,79.49
2018-02-24T03:29:41.545Z,80.54
2018-02-24T03:30:42.136Z,79.00
2018-02-24T03:31:42.703Z,80.25
2018-02-24T03:32:43.283Z,79.25
2018-02-24T03:33:43.858Z,79.54
2018-02-24T03:34:44.435Z,79.44
2018-02-24T03:35:45.164Z,79.44
2018-02-24T03:36:45.743Z,80.79
2018-02-24T03:37:46.322Z,79.06
2018-02-24T03:38:46.901Z,79.73
2018-02-24T03:39:47.481Z,78.58
2018-02-24T03:40:48.057Z,79.64
2018-02-24T03:41:48.639Z,80.79
2018-02-24T03:42:49.269Z,81.74
2018-02-24T03:43:49.848Z,81.74
2018-02-24T03:44:50.476Z,82.79
2018-02-24T03:45:51.052Z,81.74
2018-02-24T03:46:51.632Z,81.36
2018-02-24T03:47:52.210Z,81.45
2018-02-24T03:48:52.789Z,80.30
2018-02-24T03:49:53.371Z,80.79
2018-02-24T03:50:53.953Z,80.69
2018-02-24T03:51:54.533Z,80.02
2018-02-24T03:52:55.159Z,79.83
2018-02-24T03:53:55.740Z,79.73
2018-02-24T03:54:56.370Z,80.02
2018-02-24T03:55:56.951Z,79.16
2018-02-24T03:56:57.532Z,78.68
2018-02-24T03:57:58.109Z,80.11
2018-02-24T03:58:58.739Z,80.11
2018-02-24T03:59:59.316Z,80.98
2018-02-24T04:00:59.895Z,80.02
2018-02-24T04:02:00.527Z,79.64
2018-02-24T04:03:01.108Z,79.73
2018-02-24T04:04:01.690Z,80.40
2018-02-24T04:05:02.269Z,80.59
2018-02-24T04:06:02.844Z,79.73
2018-02-24T04:07:03.428Z,79.83
2018-02-24T04:08:04.007Z,79.35
2018-02-24T04:09:04.587Z,78.68
2018-02-24T04:10:05.165Z,77.34
2018-02-24T04:11:05.744Z,78.11
2018-02-24T04:12:06.324Z,78.20
2018-02-24T04:13:06.901Z,78.20
2018-02-24T04:14:07.533Z,77.72
2018-02-24T04:15:08.112Z,77.92
2018-02-24T04:16:08.690Z,79.64
2018-02-24T04:17:09.311Z,78.97
2018-02-24T04:18:09.940Z,77.06
2018-02-24T04:19:10.667Z,78.49
2018-02-24T04:20:11.244Z,78.78
2018-02-24T04:21:11.821Z,77.82
2018-02-24T04:22:12.399Z,77.72
2018-02-24T04:23:12.977Z,79.16
2018-02-24T04:24:13.554Z,78.68
2018-02-24T04:25:14.136Z,77.34
2018-02-24T04:26:14.716Z,77.53
2018-02-24T04:27:15.298Z,77.06
2018-02-24T04:28:15.877Z,77.44
2018-02-24T04:29:16.456Z,78.30
2018-02-24T04:30:17.037Z,78.39
2018-02-24T04:31:17.620Z,77.44
2018-02-24T04:32:18.243Z,78.58
2018-02-24T04:33:18.824Z,78.87
2018-02-24T04:34:19.401Z,79.16
2018-02-24T04:35:19.983Z,77.53
2018-02-24T04:36:20.613Z,78.20
2018-02-24T04:37:21.244Z,78.97
2018-02-24T04:38:21.818Z,80.40
2018-02-24T04:39:22.443Z,80.79
2018-02-24T04:40:23.021Z,79.25
2018-02-24T04:41:23.650Z,80.79
2018-02-24T04:42:24.230Z,79.73
2018-02-24T04:43:24.813Z,78.87
2018-02-24T04:44:25.386Z,79.54
2018-02-24T04:45:25.968Z,80.59
2018-02-24T04:46:26.544Z,82.12
2018-02-24T04:47:27.120Z,79.73
2018-02-24T04:48:27.698Z,78.87
2018-02-24T04:49:28.274Z,79.25
2018-02-24T04:50:28.852Z,78.30
2018-02-24T04:51:29.426Z,80.30
2018-02-24T04:52:30.004Z,80.69
2018-02-24T04:53:30.633Z,79.16
2018-02-24T04:54:31.213Z,79.06
2018-02-24T04:55:31.843Z,78.68
2018-02-24T04:56:32.473Z,78.87
2018-02-24T04:57:33.055Z,80.40
2018-02-24T04:58:33.630Z,79.25
2018-02-24T04:59:34.213Z,78.68
2018-02-24T05:00:34.790Z,79.44
2018-02-24T05:01:35.367Z,80.11
2018-02-24T05:02:35.949Z,79.83
2018-02-24T05:03:36.528Z,79.73
2018-02-24T05:04:37.108Z,80.02
2018-02-24T05:05:37.688Z,79.35
2018-02-24T05:06:38.266Z,79.64
2018-02-24T05:07:38.846Z,78.83
2018-02-24T05:08:39.427Z,79.54
2018-02-24T05:09:40.004Z,78.68
2018-02-24T05:10:40.628Z,79.69
2018-02-24T05:11:41.206Z,78.83
2018-02-24T05:12:41.782Z,78.93
2018-02-24T05:13:42.412Z,77.59
2018-02-24T05:14:43.041Z,79.73
2018-02-24T05:15:43.620Z,79.02
2018-02-24T05:16:44.196Z,78.45
2018-02-24T05:17:44.774Z,78.78
2018-02-24T05:18:45.402Z,77.50
2018-02-24T05:19:45.983Z,78.07
2018-02-24T05:20:46.570Z,77.21
2018-02-24T05:21:47.192Z,77.87
2018-02-24T05:22:47.766Z,78.93
2018-02-24T05:23:48.346Z,79.06
2018-02-24T05:24:48.926Z,78.45
2018-02-24T05:25:49.500Z,78.93
2018-02-24T05:26:50.083Z,79.79
2018-02-24T05:27:50.813Z,79.31
2018-02-24T05:28:51.392Z,79.60
2018-02-24T05:29:52.022Z,78.93
2018-02-24T05:30:52.601Z,78.87
2018-02-24T05:31:53.178Z,79.41
2018-02-24T05:32:53.756Z,80.30
2018-02-24T05:33:54.393Z,79.41
2018-02-24T05:34:54.971Z,80.46
2018-02-24T05:35:55.547Z,80.55
2018-02-24T05:36:56.127Z,79.60
2018-02-24T05:37:56.706Z,80.65
2018-02-24T05:38:57.286Z,81.32
2018-02-24T05:39:57.869Z,80.36
2018-02-24T05:40:58.448Z,80.50
2018-02-24T05:41:59.027Z,79.02
2018-02-24T05:42:59.602Z,77.78
2018-02-24T05:44:00.181Z,78.30
2018-02-24T05:45:00.806Z,79.69
2018-02-24T05:46:01.384Z,79.12
2018-02-24T05:47:02.006Z,77.72
2018-02-24T05:48:02.635Z,79.79
2018-02-24T05:49:03.215Z,78.64
2018-02-24T05:50:03.789Z,79.54
2018-02-24T05:51:04.368Z,80.11
2018-02-24T05:52:04.946Z,79.60
2018-02-24T05:53:05.526Z,79.83
2018-02-24T05:54:06.155Z,80.27
2018-02-24T05:55:06.743Z,79.60
2018-02-24T05:56:07.319Z,80.46
2018-02-24T05:57:07.895Z,79.54
2018-02-24T05:58:08.475Z,77.82
2018-02-24T05:59:09.109Z,78.93
2018-02-24T06:00:09.737Z,78.55
2018-02-24T06:01:10.316Z,77.59
2018-02-24T06:02:10.895Z,78.55
2018-02-24T06:03:11.476Z,79.41
2018-02-24T06:04:12.060Z,77.87
2018-02-24T06:05:12.641Z,77.87
2018-02-24T06:06:13.269Z,78.55
2018-02-24T06:07:13.848Z,79.12
2018-02-24T06:08:14.479Z,79.41
2018-02-24T06:09:15.056Z,78.64
2018-02-24T06:10:15.637Z,79.31
2018-02-24T06:11:16.215Z,79.50
2018-02-24T06:12:16.796Z,79.12
2018-02-24T06:13:17.422Z,79.31
2018-02-24T06:14:18.001Z,79.41
2018-02-24T06:15:18.628Z,78.36
2018-02-24T06:16:19.204Z,79.22
2018-02-24T06:17:19.824Z,79.02
2018-02-24T06:18:20.402Z,78.83
2018-02-24T06:19:20.978Z,79.02
2018-02-24T06:20:21.563Z,78.45
2018-02-24T06:21:22.141Z,78.64
2018-02-24T06:22:22.769Z,78.93
2018-02-24T06:23:23.344Z,79.50
2018-02-24T06:24:23.921Z,78.45
2018-02-24T06:25:24.509Z,78.36
2018-02-24T06:26:25.077Z,77.50
2018-02-24T06:27:25.654Z,77.30
2018-02-24T06:28:26.235Z,78.07
2018-02-24T06:29:26.811Z,79.41
2018-02-24T06:30:27.490Z,79.69
2018-02-24T06:31:28.175Z,78.64
2018-02-24T06:32:28.903Z,78.64
2018-02-24T06:33:29.480Z,79.22
2018-02-24T06:34:30.064Z,79.69
2018-02-24T06:35:30.683Z,77.40
2018-02-24T06:36:31.260Z,77.50
2018-02-24T06:37:31.839Z,77.97
2018-02-24T06:38:32.420Z,77.40
2018-02-24T06:39:33.004Z,78.26
2018-02-24T06:40:33.577Z,77.30
2018-02-24T06:41:34.156Z,76.64
2018-02-24T06:42:34.738Z,77.50
2018-02-24T06:43:35.317Z,78.64
2018-02-24T06:44:35.943Z,78.36
2018-02-24T06:45:36.520Z,76.82
2018-02-24T06:46:37.097Z,77.97
2018-02-24T06:47:37.676Z,78.26
2018-02-24T06:48:38.306Z,77.21
2018-02-24T06:49:38.884Z,78.26
2018-02-24T06:50:39.519Z,79.02
2018-02-24T06:51:40.142Z,78.93
2018-02-24T06:52:40.719Z,78.07
2018-02-24T06:53:41.346Z,77.97
2018-02-24T06:54:41.966Z,78.26
2018-02-24T06:55:42.501Z,79.41
2018-02-24T06:56:43.075Z,77.40
2018-02-24T06:57:43.651Z,77.30
2018-02-24T06:58:44.228Z,76.64
2018-02-24T06:59:44.803Z,77.87
2018-02-24T07:00:45.424Z,78.45
2018-02-24T07:01:46.001Z,78.07
2018-02-24T07:02:46.578Z,78.45
2018-02-24T07:03:47.157Z,78.26
2018-02-24T07:04:47.737Z,77.97
2018-02-24T07:05:48.310Z,77.97
2018-02-24T07:06:48.937Z,77.59
2018-02-24T07:07:49.517Z,77.11
2018-02-24T07:08:50.097Z,77.30
2018-02-24T07:09:50.678Z,76.73
2018-02-24T07:10:51.306Z,77.21
2018-02-24T07:11:51.937Z,77.59
2018-02-24T07:12:52.528Z,76.64
2018-02-24T07:13:53.094Z,77.69
2018-02-24T07:14:53.677Z,77.78
2018-02-24T07:15:54.253Z,78.07
2018-02-24T07:16:54.881Z,76.73
2018-02-24T07:17:55.460Z,76.82
2018-02-24T07:18:56.040Z,78.07
2018-02-24T07:19:56.615Z,79.12
2018-02-24T07:20:57.192Z,76.82
2018-02-24T07:21:57.767Z,76.92
2018-02-24T07:22:58.400Z,77.40
2018-02-24T07:23:58.979Z,77.78
2018-02-24T07:24:59.607Z,76.82
2018-02-24T07:26:00.188Z,77.40
2018-02-24T07:27:00.764Z,76.16
2018-02-24T07:28:01.344Z,78.26
2018-02-24T07:29:01.970Z,78.07
2018-02-24T07:30:02.591Z,77.50
2018-02-24T07:31:03.174Z,78.07
2018-02-24T07:32:03.754Z,77.69
2018-02-24T07:33:04.529Z,78.45
2018-02-24T07:34:05.106Z,78.07
2018-02-24T07:35:05.685Z,77.78
2018-02-24T07:36:06.311Z,77.78
2018-02-24T07:37:06.888Z,77.21
2018-02-24T07:38:07.467Z,78.36
2018-02-24T07:39:08.046Z,77.69
2018-02-24T07:40:08.657Z,78.26
2018-02-24T07:41:09.251Z,76.64
2018-02-24T07:42:09.830Z,78.26
2018-02-24T07:43:10.406Z,76.69
2018-02-24T07:44:10.984Z,77.94
2018-02-24T07:45:11.559Z,78.45
2018-02-24T07:46:12.137Z,78.36
2018-02-24T07:47:12.865Z,77.30
2018-02-24T07:48:13.439Z,77.74
2018-02-24T07:49:14.015Z,76.79
2018-02-24T07:50:14.593Z,78.12
2018-02-24T07:51:15.218Z,77.97
2018-02-24T07:52:15.797Z,77.40
2018-02-24T07:53:16.378Z,77.94
2018-02-24T07:54:16.953Z,78.89
2018-02-24T07:55:17.531Z,76.92
2018-02-24T07:56:18.107Z,78.03
2018-02-24T07:57:18.687Z,78.26
2018-02-24T07:58:19.259Z,78.07
2018-02-24T07:59:19.885Z,77.65
2018-02-24T08:00:20.466Z,78.31
2018-02-24T08:01:21.197Z,78.74
2018-02-24T08:02:21.774Z,79.17
2018-02-24T08:03:22.355Z,78.36
2018-02-24T08:04:22.970Z,78.41
2018-02-24T08:05:23.510Z,78.64
2018-02-24T08:06:24.089Z,78.41
2018-02-24T08:07:24.669Z,79.12
2018-02-24T08:08:25.243Z,78.93
2018-02-24T08:09:25.822Z,78.22
2018-02-24T08:10:26.398Z,78.12
2018-02-24T08:11:26.975Z,78.41
2018-02-24T08:12:27.557Z,77.94
2018-02-24T08:13:28.186Z,78.89
2018-02-24T08:14:28.762Z,79.94
2018-02-24T08:15:29.344Z,80.70
2018-02-24T08:16:29.965Z,81.03
2018-02-24T08:17:30.569Z,79.75
2018-02-24T08:18:31.118Z,78.93
2018-02-24T08:19:31.696Z,80.13
2018-02-24T08:20:32.273Z,79.36
2018-02-24T08:21:32.852Z,78.99
2018-02-24T08:22:33.433Z,80.22
2018-02-24T08:23:34.009Z,80.27
2018-02-24T08:24:34.588Z,80.32
2018-02-24T08:25:35.167Z,80.41
2018-02-24T08:26:35.794Z,78.93
2018-02-24T08:27:36.425Z,80.27
2018-02-24T08:28:37.002Z,80.46
2018-02-24T08:29:37.579Z,79.41
2018-02-24T08:30:38.157Z,79.75
2018-02-24T08:31:38.737Z,81.03
2018-02-24T08:32:39.363Z,80.46
2018-02-24T08:33:39.941Z,79.08
2018-02-24T08:34:40.519Z,77.84
2018-02-24T08:35:41.098Z,80.93
2018-02-24T08:36:41.674Z,81.99
2018-02-24T08:37:42.252Z,81.22
2018-02-24T08:38:42.832Z,82.37
2018-02-24T08:39:43.463Z,80.27
2018-02-24T08:40:44.040Z,81.60
2018-02-24T08:41:44.617Z,80.74
2018-02-24T08:42:45.245Z,79.22
2018-02-24T08:43:45.827Z,79.60
2018-02-24T08:44:46.400Z,79.69
2018-02-24T08:45:46.988Z,79.41
2018-02-24T08:46:47.601Z,80.27
2018-02-24T08:47:48.177Z,82.08
2018-02-24T08:48:48.754Z,82.08
2018-02-24T08:49:49.329Z,81.99
2018-02-24T08:50:49.905Z,82.18
2018-02-24T08:51:50.479Z,82.56
2018-02-24T08:52:51.108Z,82.84
2018-02-24T08:53:51.687Z,81.79
2018-02-24T08:54:52.266Z,81.89
2018-02-24T08:55:52.845Z,80.46
2018-02-24T08:56:53.426Z,81.13
2018-02-24T08:57:54.007Z,82.18
2018-02-24T08:58:54.588Z,81.22
2018-02-24T08:59:55.218Z,82.08
2018-02-24T09:00:55.798Z,81.89
2018-02-24T09:01:56.378Z,81.70
2018-02-24T09:02:56.958Z,82.18
2018-02-24T09:03:57.540Z,80.74
2018-02-24T09:04:58.113Z,80.17
2018-02-24T09:05:58.695Z,79.98
2018-02-24T09:06:59.273Z,80.74
2018-02-24T09:07:59.850Z,81.79
2018-02-24T09:09:00.434Z,81.89
2018-02-24T09:10:01.064Z,82.28
2018-02-24T09:11:01.698Z,82.18
2018-02-24T09:12:02.284Z,80.74
2018-02-24T09:13:02.867Z,80.27
2018-02-24T09:14:03.442Z,80.79
2018-02-24T09:15:04.172Z,81.07
2018-02-24T09:16:04.750Z,79.73
2018-02-24T09:17:05.334Z,80.50
2018-02-24T09:18:05.914Z,79.16
2018-02-24T09:19:06.533Z,78.20
2018-02-24T09:20:07.082Z,79.25
2018-02-24T09:21:07.665Z,80.59
2018-02-24T09:22:08.251Z,80.50
2018-02-24T09:23:08.833Z,80.88
2018-02-24T09:24:09.420Z,80.79
2018-02-24T09:25:10.000Z,80.40
2018-02-24T09:26:10.581Z,79.44
2018-02-24T09:27:11.365Z,80.21
2018-02-24T09:28:11.945Z,80.02
2018-02-24T09:29:12.579Z,79.35
2018-02-24T09:30:13.204Z,78.01
2018-02-24T09:31:13.787Z,77.34
2018-02-24T09:32:14.372Z,76.86
2018-02-24T09:33:15.007Z,76.29
2018-02-24T09:34:15.591Z,76.29
2018-02-24T09:35:16.173Z,78.49
2018-02-24T09:36:16.806Z,77.53
2018-02-24T09:37:17.388Z,76.48
2018-02-24T09:38:17.972Z,77.25
2018-02-24T09:39:18.555Z,77.15
2018-02-24T09:40:19.137Z,77.25
2018-02-24T09:41:19.722Z,77.44
2018-02-24T09:42:20.306Z,77.44
2018-02-24T09:43:20.889Z,79.16
2018-02-24T09:44:21.626Z,79.83
2018-02-24T09:45:22.201Z,80.11
2018-02-24T09:46:22.786Z,77.34
2018-02-24T09:47:23.376Z,78.97
2018-02-24T09:48:24.003Z,79.16
2018-02-24T09:49:24.583Z,78.49
2018-02-24T09:50:25.163Z,77.53
2018-02-24T09:51:25.748Z,76.67
2018-02-24T09:52:26.327Z,77.53
2018-02-24T09:53:26.910Z,76.77
2018-02-24T09:54:27.494Z,75.62
2018-02-24T09:55:28.123Z,75.43
2018-02-24T09:56:28.703Z,76.67
2018-02-24T09:57:29.284Z,75.91
2018-02-24T09:58:29.868Z,75.14
2018-02-24T09:59:30.497Z,74.28
2018-02-24T10:00:31.077Z,74.41
2018-02-24T10:01:31.675Z,75.24
2018-02-24T10:02:32.293Z,74.95
2018-02-24T10:03:32.878Z,73.14
2018-02-24T10:04:33.460Z,73.14
2018-02-24T10:05:34.044Z,75.05
2018-02-24T10:06:34.625Z,74.19
2018-02-24T10:07:35.207Z,74.57
2018-02-24T10:08:35.805Z,77.38
2018-02-24T10:09:36.523Z,79.68
2018-02-24T10:10:37.108Z,76.90
2018-02-24T10:11:37.694Z,73.94
2018-02-24T10:12:38.278Z,73.94
2018-02-24T10:13:38.868Z,73.55
2018-02-24T10:14:39.504Z,73.27
2018-02-24T10:15:40.134Z,71.73
2018-02-24T10:16:40.721Z,72.41
2018-02-24T10:17:41.352Z,72.41
2018-02-24T10:18:41.933Z,72.12
2018-02-24T10:19:42.567Z,73.17
2018-02-24T10:20:43.149Z,73.27
2018-02-24T10:21:43.739Z,71.93
2018-02-24T10:22:44.322Z,71.45
2018-02-24T10:23:44.903Z,70.78
2018-02-24T10:24:45.489Z,69.06
2018-02-24T10:25:46.072Z,70.11
2018-02-24T10:26:46.655Z,69.54
2018-02-24T10:27:47.237Z,70.40
2018-02-24T10:28:47.871Z,71.26
2018-02-24T10:29:48.455Z,72.12
2018-02-24T10:30:49.037Z,68.68
2018-02-24T10:31:49.620Z,66.67
2018-02-24T10:32:50.204Z,68.58
2018-02-24T10:33:50.838Z,68.68
2018-02-24T10:34:51.424Z,68.42
2018-02-24T10:35:52.008Z,66.09
2018-02-24T10:36:52.641Z,65.26
2018-02-24T10:37:53.230Z,66.13
2018-02-24T10:38:53.818Z,68.52
2018-02-24T10:39:54.409Z,66.89
2018-02-24T10:40:54.990Z,68.13
2018-02-24T10:41:55.574Z,66.32
2018-02-24T10:42:56.213Z,65.74
2018-02-24T10:43:56.850Z,67.94
2018-02-24T10:44:57.436Z,65.36
2018-02-24T10:45:58.016Z,67.85
2018-02-24T10:46:58.602Z,66.51
2018-02-24T10:47:59.185Z,66.61
2018-02-24T10:48:59.774Z,68.17
2018-02-24T10:50:00.355Z,66.83
2018-02-24T10:51:00.988Z,65.78
2018-02-24T10:52:01.574Z,66.35
2018-02-24T10:53:02.208Z,65.49
2018-02-24T10:54:02.843Z,64.15
2018-02-24T10:55:03.425Z,66.06
2018-02-24T10:56:04.009Z,67.41
2018-02-24T10:57:04.593Z,67.79
2018-02-24T10:58:05.178Z,71.04
2018-02-24T10:59:05.812Z,69.32
2018-02-24T11:00:06.397Z,67.79
2018-02-24T11:01:06.980Z,70.28
2018-02-24T11:02:07.565Z,68.17
2018-02-24T11:03:08.153Z,66.00
2018-02-24T11:04:08.740Z,68.01
2018-02-24T11:05:09.330Z,69.64
2018-02-24T11:06:09.919Z,70.79
2018-02-24T11:07:10.506Z,68.21
2018-02-24T11:08:11.090Z,68.21
2018-02-24T11:09:11.725Z,68.59
2018-02-24T11:10:12.313Z,70.70
2018-02-24T11:11:12.952Z,71.46
2018-02-24T11:12:13.542Z,69.93
2018-02-24T11:13:14.127Z,68.68
2018-02-24T11:14:14.710Z,67.72
2018-02-24T11:15:15.297Z,69.64
2018-02-24T11:16:15.934Z,69.29
2018-02-24T11:17:16.518Z,70.06
2018-02-24T11:18:17.110Z,70.44
2018-02-24T11:19:17.695Z,71.31
2018-02-24T11:20:18.287Z,70.92
2018-02-24T11:21:18.876Z,71.21
2018-02-24T11:22:19.461Z,70.06
2018-02-24T11:23:20.047Z,69.20
2018-02-24T11:24:20.637Z,69.29
2018-02-24T11:25:21.271Z,69.96
2018-02-24T11:26:21.861Z,69.87
2018-02-24T11:27:22.447Z,70.15
2018-02-24T11:28:23.034Z,68.24
2018-02-24T11:29:23.622Z,68.14
2018-02-24T11:30:24.212Z,67.28
2018-02-24T11:31:24.849Z,68.24
2018-02-24T11:32:25.432Z,65.55
2018-02-24T11:33:26.074Z,65.84
2018-02-24T11:34:26.655Z,65.84
2018-02-24T11:35:27.244Z,65.36
2018-02-24T11:36:27.828Z,65.94
2018-02-24T11:37:28.416Z,64.79
2018-02-24T11:38:29.051Z,65.65
2018-02-24T11:39:29.643Z,67.38
2018-02-24T11:40:30.225Z,66.99
2018-02-24T11:41:30.819Z,67.18
2018-02-24T11:42:31.449Z,68.43
2018-02-24T11:43:32.042Z,67.28
2018-02-24T11:44:32.625Z,68.33
2018-02-24T11:45:33.211Z,70.92
2018-02-24T11:46:33.851Z,70.50
2018-02-24T11:47:34.473Z,71.46
2018-02-24T11:48:35.109Z,71.75
2018-02-24T11:49:35.696Z,70.03
2018-02-24T11:50:36.279Z,63.13
2018-02-24T11:51:36.866Z,52.50
2018-02-24T11:52:37.495Z,47.32
2018-02-24T11:53:38.130Z,60.25
2018-02-24T11:54:38.720Z,65.81
2018-02-24T11:55:39.309Z,65.71
2018-02-24T11:56:39.899Z,52.11
2018-02-24T11:57:40.483Z,51.25
2018-02-24T11:58:41.070Z,48.35
2018-02-24T11:59:41.704Z,46.62
2018-02-24T12:00:42.290Z,49.60
2018-02-24T12:01:42.882Z,47.78
2018-02-24T12:02:43.460Z,49.02
2018-02-24T12:03:44.043Z,46.44
2018-02-24T12:04:44.629Z,49.50
2018-02-24T12:05:45.266Z,54.19
2018-02-24T12:06:45.851Z,58.31
2018-02-24T12:07:46.438Z,56.68
2018-02-24T12:08:47.024Z,52.09
2018-02-24T12:09:47.611Z,48.93
2018-02-24T12:10:48.242Z,58.31
2018-02-24T12:11:48.826Z,52.95
2018-02-24T12:12:49.412Z,49.88
2018-02-24T12:13:49.995Z,49.98
2018-02-24T12:14:50.631Z,50.84
2018-02-24T12:15:51.216Z,51.51
2018-02-24T12:16:51.803Z,50.84
2018-02-24T12:17:52.386Z,50.84
2018-02-24T12:18:52.968Z,51.13
2018-02-24T12:19:53.553Z,50.46
2018-02-24T12:20:54.138Z,50.07
2018-02-24T12:21:54.771Z,50.56
2018-02-24T12:22:55.357Z,56.87
2018-02-24T12:23:55.945Z,59.65
2018-02-24T12:24:56.527Z,60.51
2018-02-24T12:25:57.114Z,60.80
2018-02-24T12:26:57.752Z,60.70
2018-02-24T12:27:58.332Z,60.32
2018-02-24T12:28:58.918Z,60.89
2018-02-24T12:29:59.502Z,60.61
2018-02-24T12:31:00.186Z,60.22
2018-02-24T12:32:00.875Z,60.41
2018-02-24T12:33:01.459Z,60.22
2018-02-24T12:34:02.044Z,59.36
2018-02-24T12:35:02.733Z,60.13
2018-02-24T12:36:03.320Z,60.61
2018-02-24T12:37:03.905Z,60.32
2018-02-24T12:38:04.492Z,60.13
2018-02-24T12:39:05.075Z,59.36
2018-02-24T12:40:05.664Z,58.31
2018-02-24T12:41:06.248Z,58.31
2018-02-24T12:42:06.828Z,58.50
2018-02-24T12:43:07.410Z,59.45
2018-02-24T12:44:07.994Z,58.98
2018-02-24T12:45:08.577Z,58.98
2018-02-24T12:46:09.204Z,59.55
2018-02-24T12:47:09.843Z,60.61
2018-02-24T12:48:10.427Z,60.61
2018-02-24T12:49:11.065Z,60.51
2018-02-24T12:50:11.701Z,61.47
2018-02-24T12:51:12.282Z,61.37
2018-02-24T12:52:12.968Z,62.23
2018-02-24T12:53:13.550Z,61.76
2018-02-24T12:54:14.134Z,61.88
2018-02-24T12:55:14.719Z,62.71
2018-02-24T12:56:15.303Z,63.19
2018-02-24T12:57:15.887Z,63.80
2018-02-24T12:58:16.472Z,62.93
2018-02-24T12:59:17.060Z,63.19
2018-02-24T13:00:17.648Z,63.67